createdAt,value
2019-05-05T00:02:44.722Z,13.43
2019-05-05T00:05:26.161Z,12.90
2019-05-05T00:07:56.572Z,12.92
2019-05-05T00:10:45.263Z,13.40
2019-05-05T00:13:25.203Z,13.44
2019-05-05T00:16:16.125Z,13.65
2019-05-05T00:18:46.612Z,13.95
2019-05-05T00:21:17.208Z,13.31
2019-05-05T00:23:47.947Z,13.04
2019-05-05T00:26:19.381Z,13.61
2019-05-05T00:28:49.770Z,13.12
2019-05-05T00:31:20.438Z,12.82
2019-05-05T00:33:50.769Z,13.03
2019-05-05T00:36:21.108Z,13.01
2019-05-05T00:38:51.809Z,13.17
2019-05-05T00:41:22.373Z,13.22
2019-05-05T00:43:52.735Z,13.13
2019-05-05T00:46:32.320Z,13.33
2019-05-05T00:49:02.733Z,13.07
2019-05-05T00:51:34.800Z,13.39
2019-05-05T00:54:05.612Z,13.52
2019-05-05T00:56:36.933Z,13.63
2019-05-05T00:59:09.756Z,13.78
2019-05-05T01:02:00.321Z,14.01
2019-05-05T01:04:38.203Z,13.14
2019-05-05T01:07:08.660Z,13.65
2019-05-05T01:09:39.948Z,13.66
2019-05-05T01:12:10.673Z,13.81
2019-05-05T01:14:41.070Z,13.68
2019-05-05T01:17:11.525Z,13.41
2019-05-05T01:19:41.847Z,13.45
2019-05-05T01:22:14.253Z,13.35
2019-05-05T01:24:45.851Z,13.42
2019-05-05T01:27:16.991Z,13.34
2019-05-05T01:29:47.724Z,12.59
2019-05-05T01:32:24.689Z,12.87
2019-05-05T01:34:55.366Z,13.14
2019-05-05T01:37:34.850Z,12.53
2019-05-05T01:40:35.372Z,12.27
2019-05-05T01:43:05.815Z,12.68
2019-05-05T01:45:37.581Z,12.76
2019-05-05T01:48:07.872Z,12.36
2019-05-05T01:50:38.326Z,12.43
2019-05-05T01:53:08.771Z,12.30
2019-05-05T01:55:39.584Z,12.70
2019-05-05T01:58:10.846Z,12.73
2019-05-05T02:00:41.258Z,12.76
2019-05-05T02:03:12.303Z,12.69
2019-05-05T02:05:45.146Z,12.95
2019-05-05T02:08:15.403Z,13.23
2019-05-05T02:10:45.798Z,12.87
2019-05-05T02:13:16.500Z,12.83
2019-05-05T02:15:46.901Z,12.89
2019-05-05T02:18:17.259Z,12.94
2019-05-05T02:21:00.702Z,13.04
2019-05-05T02:23:31.298Z,12.87
2019-05-05T02:26:01.919Z,12.42
2019-05-05T02:28:39.125Z,12.29
2019-05-05T02:31:25.596Z,12.29
2019-05-05T02:33:57.076Z,12.18
2019-05-05T02:36:28.411Z,12.65
2019-05-05T02:38:58.770Z,12.77
2019-05-05T02:41:29.965Z,12.77
2019-05-05T02:44:00.543Z,12.75
2019-05-05T02:46:44.685Z,12.46
2019-05-05T02:49:15.808Z,12.49
2019-05-05T02:51:47.845Z,12.41
2019-05-05T02:54:19.598Z,12.18
2019-05-05T02:56:54.072Z,12.34
2019-05-05T02:59:43.549Z,12.68
2019-05-05T03:02:17.379Z,12.68
2019-05-05T03:04:48.301Z,12.66
2019-05-05T03:07:19.549Z,12.54
2019-05-05T03:09:51.579Z,12.68
2019-05-05T03:12:24.244Z,12.63
2019-05-05T03:14:57.641Z,12.54
2019-05-05T03:17:27.985Z,12.58
2019-05-05T03:19:58.427Z,12.62
2019-05-05T03:22:29.574Z,12.64
2019-05-05T03:25:00.604Z,12.72
2019-05-05T03:27:30.987Z,12.63
2019-05-05T03:30:05.047Z,12.62
2019-05-05T03:32:36.260Z,12.75
2019-05-05T03:35:07.184Z,12.78
2019-05-05T03:37:37.845Z,12.77
2019-05-05T03:40:15.411Z,12.78
2019-05-05T03:42:59.670Z,12.89
2019-05-05T03:45:34.240Z,12.88
2019-05-05T03:48:04.866Z,12.86
2019-05-05T03:50:35.901Z,12.81
2019-05-05T03:53:06.660Z,12.88
2019-05-05T03:55:37.304Z,12.72
2019-05-05T03:58:07.997Z,12.46
2019-05-05T04:02:03.980Z,12.64
2019-05-05T04:04:39.653Z,12.60
2019-05-05T04:07:13.821Z,12.20
2019-05-05T04:09:44.250Z,12.49
2019-05-05T04:12:15.844Z,12.44
2019-05-05T04:14:46.594Z,12.54
2019-05-05T04:17:35.075Z,12.77
2019-05-05T04:20:25.221Z,12.71
2019-05-05T04:22:58.082Z,13.02
2019-05-05T04:25:27.947Z,12.70
2019-05-05T04:27:58.467Z,12.41
2019-05-05T04:30:29.044Z,12.37
2019-05-05T04:32:59.431Z,12.48
2019-05-05T04:35:29.826Z,11.79
2019-05-05T04:38:01.609Z,11.63
2019-05-05T04:40:31.893Z,11.83
2019-05-05T04:43:03.903Z,12.01
2019-05-05T04:45:34.823Z,12.11
2019-05-05T04:48:19.666Z,12.14
2019-05-05T04:51:21.625Z,11.78
2019-05-05T04:54:14.063Z,12.10
2019-05-05T04:56:44.831Z,12.37
2019-05-05T04:59:15.414Z,12.69
2019-05-05T05:01:46.915Z,12.86
2019-05-05T05:04:25.900Z,12.90
2019-05-05T05:06:57.777Z,12.79
2019-05-05T05:09:28.216Z,13.14
2019-05-05T05:11:58.663Z,13.19
2019-05-05T05:14:29.160Z,13.02
2019-05-05T05:17:03.384Z,13.39
2019-05-05T05:19:33.598Z,13.54
2019-05-05T05:22:04.956Z,13.92
2019-05-05T05:24:35.533Z,13.68
2019-05-05T05:27:06.123Z,13.88
2019-05-05T05:29:36.700Z,14.16
2019-05-05T05:32:07.019Z,14.04
2019-05-05T05:34:37.704Z,13.99
2019-05-05T05:37:08.380Z,13.58
2019-05-05T05:39:54.517Z,13.75
2019-05-05T05:42:26.304Z,14.00
2019-05-05T05:45:18.765Z,14.00
2019-05-05T05:48:23.739Z,13.96
2019-05-05T05:50:57.068Z,13.93
2019-05-05T05:53:27.441Z,13.88
2019-05-05T05:55:58.184Z,14.08
2019-05-05T05:58:28.808Z,14.10
2019-05-05T06:00:59.131Z,14.10
2019-05-05T06:03:29.539Z,14.25
2019-05-05T06:06:00.015Z,13.97
2019-05-05T06:08:30.298Z,14.11
2019-05-05T06:11:00.769Z,14.04
2019-05-05T06:13:33.492Z,14.26
2019-05-05T06:16:04.350Z,14.31
2019-05-05T06:18:34.860Z,14.35
2019-05-05T06:21:05.526Z,14.30
2019-05-05T06:23:36.207Z,14.66
2019-05-05T06:26:07.332Z,14.75
2019-05-05T06:28:37.688Z,14.55
2019-05-05T06:31:08.261Z,14.81
2019-05-05T06:33:38.864Z,14.87
2019-05-05T06:36:09.231Z,15.12
2019-05-05T06:38:39.541Z,14.74
2019-05-05T06:41:29.167Z,14.83
2019-05-05T06:44:15.164Z,15.06
2019-05-05T06:47:00.457Z,15.06
2019-05-05T06:49:31.428Z,15.04
2019-05-05T06:52:04.100Z,15.12
2019-05-05T06:54:34.972Z,15.34
2019-05-05T06:57:05.426Z,15.62
2019-05-05T06:59:35.763Z,15.81
2019-05-05T07:02:06.415Z,15.89
2019-05-05T07:04:36.724Z,16.01
2019-05-05T07:07:07.072Z,16.09
2019-05-05T07:09:37.743Z,16.27
2019-05-05T07:12:08.354Z,16.12
2019-05-05T07:14:38.638Z,16.27
2019-05-05T07:17:09.377Z,16.30
2019-05-05T07:19:40.078Z,16.48
2019-05-05T07:22:13.870Z,16.47
2019-05-05T07:24:43.982Z,16.75
2019-05-05T07:27:14.707Z,17.13
2019-05-05T07:29:45.030Z,17.38
2019-05-05T07:32:15.665Z,17.02
2019-05-05T07:35:14.591Z,17.45
2019-05-05T07:37:45.125Z,17.76
2019-05-05T07:40:15.480Z,18.13
2019-05-05T07:42:46.238Z,18.21
2019-05-05T07:45:22.093Z,18.27
2019-05-05T07:47:48.945Z,17.79
2019-05-05T07:50:29.573Z,18.52
2019-05-05T07:52:54.417Z,18.12
2019-05-05T07:55:24.215Z,17.95
2019-05-05T07:57:55.117Z,18.16
2019-05-05T08:00:25.501Z,17.24
2019-05-05T08:02:56.328Z,16.55
2019-05-05T08:05:26.622Z,17.16
2019-05-05T08:07:57.918Z,16.97
2019-05-05T08:10:28.614Z,17.35
2019-05-05T08:12:59.200Z,17.66
2019-05-05T08:15:29.781Z,17.44
2019-05-05T08:18:31.670Z,17.90
2019-05-05T08:21:04.293Z,17.67
2019-05-05T08:24:00.068Z,17.67
2019-05-05T08:26:46.974Z,17.96
2019-05-05T08:29:38.932Z,16.97
2019-05-05T08:32:18.094Z,17.14
2019-05-05T08:34:59.924Z,17.29
2019-05-05T08:37:20.467Z,17.60
2019-05-05T08:39:51.230Z,18.10
2019-05-05T08:42:21.932Z,18.88
2019-05-05T08:44:53.829Z,18.88
2019-05-05T08:47:28.173Z,18.57
2019-05-05T08:49:58.148Z,18.74
2019-05-05T08:52:28.428Z,19.08
2019-05-05T08:54:58.859Z,19.28
2019-05-05T08:57:29.659Z,19.74
2019-05-05T09:00:00.210Z,19.99
2019-05-05T09:02:33.204Z,20.55
2019-05-05T09:05:04.270Z,20.90
2019-05-05T09:07:34.688Z,21.07
2019-05-05T09:10:06.231Z,21.07
2019-05-05T09:12:36.705Z,20.60
2019-05-05T09:15:08.680Z,20.90
2019-05-05T09:17:39.473Z,21.18
2019-05-05T09:20:10.165Z,21.48
2019-05-05T09:22:40.673Z,21.51
2019-05-05T09:25:19.228Z,21.43
2019-05-05T09:28:08.619Z,21.64
2019-05-05T09:30:44.271Z,21.90
2019-05-05T09:33:15.409Z,22.14
2019-05-05T09:35:47.396Z,22.29
2019-05-05T09:38:18.600Z,22.33
2019-05-05T09:40:48.945Z,22.71
2019-05-05T09:43:20.419Z,22.74
2019-05-05T09:45:50.996Z,21.32
2019-05-05T09:48:21.385Z,21.98
2019-05-05T09:50:53.915Z,22.15
2019-05-05T09:53:27.203Z,22.05
2019-05-05T09:55:56.497Z,21.98
2019-05-05T09:58:26.776Z,21.86
2019-05-05T10:00:57.511Z,21.75
2019-05-05T10:03:27.943Z,22.37
2019-05-05T10:05:58.255Z,22.61
2019-05-05T10:08:28.907Z,22.36
2019-05-05T10:10:59.231Z,22.58
2019-05-05T10:13:30.055Z,22.73
2019-05-05T10:16:00.542Z,23.13
2019-05-05T10:18:30.837Z,23.24
2019-05-05T10:21:01.542Z,23.07
2019-05-05T10:23:34.259Z,23.20
2019-05-05T10:26:07.863Z,23.06
2019-05-05T10:28:38.722Z,23.27
2019-05-05T10:31:09.237Z,23.19
2019-05-05T10:33:43.003Z,23.35
2019-05-05T10:36:13.865Z,23.18
2019-05-05T10:38:47.324Z,23.01
2019-05-05T10:41:17.655Z,23.28
2019-05-05T10:43:48.238Z,23.29
2019-05-05T10:46:18.578Z,23.51
2019-05-05T10:48:49.361Z,23.40
2019-05-05T10:51:20.223Z,23.17
2019-05-05T10:53:50.524Z,22.91
2019-05-05T10:56:21.372Z,22.88
2019-05-05T10:58:54.573Z,22.86
2019-05-05T11:01:24.987Z,22.96
2019-05-05T11:03:55.391Z,22.70
2019-05-05T11:06:25.836Z,22.92
2019-05-05T11:08:56.131Z,22.38
2019-05-05T11:11:26.429Z,22.28
2019-05-05T11:13:57.312Z,22.44
2019-05-05T11:16:27.875Z,22.64
2019-05-05T11:18:58.985Z,22.72
2019-05-05T11:21:29.289Z,22.65
2019-05-05T11:23:59.658Z,22.78
2019-05-05T11:26:30.392Z,21.33
2019-05-05T11:29:00.668Z,23.20
2019-05-05T11:31:31.249Z,23.17
2019-05-05T11:34:20.530Z,22.82
2019-05-05T11:37:06.445Z,22.95
2019-05-05T11:39:37.962Z,23.19
2019-05-05T11:42:08.680Z,23.19
2019-05-05T11:44:39.372Z,23.19
2019-05-05T11:47:09.704Z,23.73
2019-05-05T11:49:40.346Z,23.48
2019-05-05T11:52:10.800Z,22.84
2019-05-05T11:54:41.097Z,23.29
2019-05-05T11:57:13.526Z,23.65
2019-05-05T11:59:44.242Z,23.86
2019-05-05T12:02:14.553Z,24.38
2019-05-05T12:04:44.856Z,24.43
2019-05-05T12:07:15.551Z,24.44
2019-05-05T12:09:50.856Z,24.37
2019-05-05T12:12:21.220Z,24.68
2019-05-05T12:14:53.868Z,24.72
2019-05-05T12:17:35.489Z,24.76
2019-05-05T12:20:09.276Z,24.80
2019-05-05T12:22:39.583Z,24.76
2019-05-05T12:25:28.683Z,24.52
2019-05-05T12:28:04.361Z,24.29
2019-05-05T12:30:34.833Z,23.96
2019-05-05T12:33:05.236Z,23.71
2019-05-05T12:35:35.675Z,23.93
2019-05-05T12:38:06.053Z,23.83
2019-05-05T12:40:36.388Z,24.02
2019-05-05T12:43:07.005Z,23.87
2019-05-05T12:45:39.487Z,23.39
2019-05-05T12:48:28.073Z,23.40
2019-05-05T12:50:58.808Z,23.06
2019-05-05T12:53:30.147Z,23.08
2019-05-05T12:56:00.711Z,22.90
2019-05-05T12:58:33.466Z,23.10
2019-05-05T13:01:17.828Z,23.33
2019-05-05T13:03:48.357Z,23.79
2019-05-05T13:06:19.146Z,24.09
2019-05-05T13:08:50.913Z,23.53
2019-05-05T13:11:23.664Z,23.99
2019-05-05T13:13:54.642Z,24.16
2019-05-05T13:16:26.298Z,24.57
2019-05-05T13:18:56.765Z,24.51
2019-05-05T13:21:45.159Z,24.06
2019-05-05T13:24:34.733Z,23.90
2019-05-05T13:27:19.222Z,24.25
2019-05-05T13:29:44.328Z,24.18
2019-05-05T13:32:14.717Z,24.20
2019-05-05T13:34:45.191Z,24.18
2019-05-05T13:37:15.622Z,23.84
2019-05-05T13:39:46.125Z,23.74
2019-05-05T13:42:16.945Z,24.20
2019-05-05T13:45:09.050Z,23.95
2019-05-05T13:47:39.661Z,23.98
2019-05-05T13:50:15.335Z,23.94
2019-05-05T13:52:46.734Z,24.04
2019-05-05T13:55:17.503Z,23.93
2019-05-05T13:57:47.952Z,24.00
2019-05-05T14:00:19.441Z,24.01
2019-05-05T14:02:49.927Z,24.04
2019-05-05T14:05:20.261Z,23.72
2019-05-05T14:07:50.762Z,23.74
2019-05-05T14:10:23.617Z,24.01
2019-05-05T14:12:54.302Z,23.97
2019-05-05T14:15:24.585Z,23.96
2019-05-05T14:17:55.371Z,24.01
2019-05-05T14:20:25.963Z,23.89
2019-05-05T14:22:56.262Z,23.92
2019-05-05T14:25:28.951Z,23.94
2019-05-05T14:27:59.687Z,23.81
2019-05-05T14:30:56.467Z,24.10
2019-05-05T14:33:29.875Z,23.97
2019-05-05T14:36:10.213Z,23.94
2019-05-05T14:38:53.887Z,23.67
2019-05-05T14:41:24.789Z,23.78
2019-05-05T14:43:56.543Z,23.48
2019-05-05T14:46:27.335Z,23.77
2019-05-05T14:48:58.014Z,23.76
2019-05-05T14:51:28.439Z,23.51
2019-05-05T14:53:59.102Z,23.45
2019-05-05T14:56:36.101Z,23.18
2019-05-05T14:59:03.593Z,23.11
2019-05-05T15:01:34.520Z,23.29
2019-05-05T15:04:04.971Z,23.30
2019-05-05T15:06:43.966Z,23.24
2019-05-05T15:09:24.660Z,22.77
2019-05-05T15:12:34.069Z,22.67
2019-05-05T15:15:07.314Z,22.70
2019-05-05T15:17:37.960Z,22.20
2019-05-05T15:20:08.736Z,22.04
2019-05-05T15:22:39.354Z,21.84
2019-05-05T15:25:10.319Z,21.78
2019-05-05T15:27:40.789Z,21.42
2019-05-05T15:30:12.407Z,21.68
2019-05-05T15:32:43.826Z,21.79
2019-05-05T15:35:14.622Z,21.66
2019-05-05T15:37:45.318Z,21.30
2019-05-05T15:40:15.822Z,21.34
2019-05-05T15:42:47.398Z,20.89
2019-05-05T15:45:18.403Z,21.01
2019-05-05T15:47:48.784Z,21.27
2019-05-05T15:50:19.364Z,21.18
2019-05-05T15:52:50.183Z,20.91
2019-05-05T15:55:20.640Z,20.98
2019-05-05T15:57:51.068Z,20.91
2019-05-05T16:00:22.821Z,20.09
2019-05-05T16:02:54.879Z,20.24
2019-05-05T16:05:25.275Z,20.58
2019-05-05T16:07:56.041Z,20.13
2019-05-05T16:10:26.812Z,19.81
2019-05-05T16:12:57.259Z,19.49
2019-05-05T16:15:49.960Z,19.62
2019-05-05T16:18:48.145Z,19.46
2019-05-05T16:21:34.687Z,19.74
2019-05-05T16:24:10.637Z,19.74
2019-05-05T16:26:41.330Z,19.80
2019-05-05T16:29:11.649Z,19.92
2019-05-05T16:31:41.965Z,19.70
2019-05-05T16:34:14.147Z,18.98
2019-05-05T16:36:45.718Z,18.58
2019-05-05T16:39:16.433Z,17.88
2019-05-05T16:41:47.207Z,17.88
2019-05-05T16:44:17.855Z,17.64
2019-05-05T16:46:48.592Z,17.31
2019-05-05T16:49:19.075Z,16.99
2019-05-05T16:51:55.867Z,16.70
2019-05-05T16:54:33.664Z,16.31
2019-05-05T16:57:05.824Z,15.97
2019-05-05T16:59:36.251Z,15.78
2019-05-05T17:02:06.638Z,15.84
2019-05-05T17:04:37.246Z,15.56
2019-05-05T17:07:07.566Z,15.43
2019-05-05T17:09:38.278Z,15.24
2019-05-05T17:12:13.902Z,15.02
2019-05-05T17:14:58.010Z,14.75
2019-05-05T17:17:46.472Z,14.66
2019-05-05T17:20:19.643Z,14.36
2019-05-05T17:22:56.999Z,14.54
2019-05-05T17:25:27.562Z,14.29
2019-05-05T17:27:57.875Z,14.18
2019-05-05T17:30:28.521Z,14.18
2019-05-05T17:32:59.148Z,14.25
2019-05-05T17:35:29.567Z,14.21
2019-05-05T17:38:13.767Z,14.27
2019-05-05T17:41:03.727Z,14.43
2019-05-05T17:43:55.790Z,14.54
2019-05-05T17:46:48.154Z,14.33
2019-05-05T17:49:32.376Z,14.33
2019-05-05T17:52:31.225Z,14.51
2019-05-05T17:55:18.080Z,14.56
2019-05-05T17:57:58.878Z,14.62
2019-05-05T18:00:20.549Z,14.66
2019-05-05T18:02:50.953Z,14.56
2019-05-05T18:05:24.806Z,14.64
2019-05-05T18:07:55.313Z,14.74
2019-05-05T18:10:36.261Z,14.93
2019-05-05T18:13:20.604Z,15.12
2019-05-05T18:16:01.654Z,15.09
2019-05-05T18:18:32.403Z,15.33
2019-05-05T18:21:02.707Z,15.49
2019-05-05T18:23:34.180Z,15.42
2019-05-05T18:26:04.535Z,15.30
2019-05-05T18:28:34.993Z,15.02
2019-05-05T18:31:05.734Z,15.13
2019-05-05T18:33:36.123Z,15.16
2019-05-05T18:36:06.736Z,15.31
2019-05-05T18:38:37.568Z,15.25
2019-05-05T18:41:14.024Z,15.34
2019-05-05T18:44:00.456Z,15.23
2019-05-05T18:46:31.128Z,15.26
2019-05-05T18:49:01.625Z,15.09
2019-05-05T18:51:32.025Z,15.14
2019-05-05T18:54:04.193Z,15.47
2019-05-05T18:56:34.867Z,15.53
2019-05-05T18:59:06.716Z,15.76
2019-05-05T19:01:53.033Z,15.28
2019-05-05T19:04:32.530Z,15.41
2019-05-05T19:07:08.255Z,15.29
2019-05-05T19:09:51.144Z,14.94
2019-05-05T19:12:10.822Z,14.77
2019-05-05T19:14:41.263Z,15.39
2019-05-05T19:17:14.101Z,15.48
2019-05-05T19:19:47.045Z,15.60
2019-05-05T19:22:17.942Z,15.47
2019-05-05T19:24:48.376Z,15.24
2019-05-05T19:27:18.731Z,15.80
2019-05-05T19:29:49.087Z,15.72
2019-05-05T19:32:19.394Z,15.07
2019-05-05T19:34:50.157Z,15.00
2019-05-05T19:37:20.669Z,14.97
2019-05-05T19:39:51.002Z,15.42
2019-05-05T19:42:23.836Z,15.27
2019-05-05T19:44:54.521Z,15.19
2019-05-05T19:47:24.798Z,15.05
2019-05-05T19:50:01.070Z,14.84
2019-05-05T19:52:31.841Z,14.86
2019-05-05T19:55:04.276Z,14.87
2019-05-05T19:57:36.138Z,14.93
2019-05-05T20:00:08.656Z,14.94
2019-05-05T20:02:39.684Z,14.90
2019-05-05T20:05:10.449Z,14.97
2019-05-05T20:07:40.927Z,14.92
2019-05-05T20:10:12.175Z,15.17
2019-05-05T20:12:44.850Z,15.39
2019-05-05T20:15:22.257Z,15.16
2019-05-05T20:17:53.896Z,15.04
2019-05-05T20:20:24.829Z,15.03
2019-05-05T20:22:55.154Z,15.19
2019-05-05T20:25:25.609Z,15.19
2019-05-05T20:27:56.133Z,15.21
2019-05-05T20:30:27.485Z,15.05
2019-05-05T20:33:06.157Z,14.87
2019-05-05T20:35:40.894Z,14.76
2019-05-05T20:38:17.351Z,14.49
2019-05-05T20:41:06.612Z,14.32
2019-05-05T20:43:37.326Z,14.31
2019-05-05T20:46:08.556Z,14.36
2019-05-05T20:48:41.190Z,14.36
2019-05-05T20:51:13.416Z,14.35
2019-05-05T20:53:44.735Z,14.40
2019-05-05T20:56:15.864Z,14.29
2019-05-05T20:58:46.206Z,14.25
2019-05-05T21:01:16.635Z,14.34
2019-05-05T21:03:47.035Z,14.31
2019-05-05T21:06:18.870Z,14.29
2019-05-05T21:08:49.149Z,14.35
2019-05-05T21:11:19.848Z,14.42
2019-05-05T21:13:50.648Z,14.35
2019-05-05T21:16:21.033Z,14.31
2019-05-05T21:18:53.741Z,14.28
2019-05-05T21:21:26.466Z,14.34
2019-05-05T21:23:58.585Z,14.42
2019-05-05T21:26:46.791Z,14.59
2019-05-05T21:29:17.505Z,14.56
2019-05-05T21:31:48.005Z,14.63
2019-05-05T21:34:18.613Z,14.54
2019-05-05T21:36:49.358Z,14.53
2019-05-05T21:39:19.890Z,14.64
2019-05-05T21:41:50.581Z,14.66
2019-05-05T21:44:20.893Z,14.23
2019-05-05T21:46:53.490Z,14.28
2019-05-05T21:49:24.317Z,14.42
2019-05-05T21:52:26.029Z,14.52
2019-05-05T21:55:15.167Z,14.84
2019-05-05T21:58:13.651Z,14.71
2019-05-05T22:01:04.212Z,14.77
2019-05-05T22:03:37.261Z,14.53
2019-05-05T22:06:08.123Z,14.57
2019-05-05T22:08:38.576Z,14.71
2019-05-05T22:11:09.017Z,14.44
2019-05-05T22:13:39.455Z,14.92
2019-05-05T22:16:09.835Z,14.71
2019-05-05T22:18:40.813Z,14.33
2019-05-05T22:21:39.067Z,14.61
2019-05-05T22:24:37.456Z,14.95
2019-05-05T22:27:08.162Z,14.87
2019-05-05T22:29:38.556Z,14.83
2019-05-05T22:32:08.870Z,14.75
2019-05-05T22:34:39.425Z,14.54
2019-05-05T22:37:10.128Z,14.57
2019-05-05T22:39:40.482Z,14.57
2019-05-05T22:42:10.968Z,14.81
2019-05-05T22:44:41.709Z,15.29
2019-05-05T22:47:13.930Z,15.41
2019-05-05T22:49:44.454Z,15.30
2019-05-05T22:52:15.357Z,15.12
2019-05-05T22:54:45.701Z,15.06
2019-05-05T22:57:15.995Z,14.84
2019-05-05T22:59:46.415Z,14.63
2019-05-05T23:02:18.603Z,14.52
2019-05-05T23:04:57.715Z,14.55
2019-05-05T23:07:34.815Z,14.48
2019-05-05T23:10:05.214Z,14.45
2019-05-05T23:12:35.495Z,14.48
2019-05-05T23:15:08.135Z,14.60
2019-05-05T23:17:54.325Z,14.52
2019-05-05T23:20:53.954Z,14.34
2019-05-05T23:23:56.026Z,14.52
2019-05-05T23:26:26.376Z,14.53
2019-05-05T23:28:56.828Z,14.69
2019-05-05T23:31:27.560Z,14.19
2019-05-05T23:33:57.904Z,14.10
2019-05-05T23:36:28.535Z,14.00
2019-05-05T23:38:59.207Z,14.06
2019-05-05T23:41:29.520Z,14.22
2019-05-05T23:43:59.994Z,14.34
2019-05-05T23:46:30.690Z,14.52
2019-05-05T23:49:00.986Z,14.66
2019-05-05T23:51:31.737Z,14.43
2019-05-05T23:54:04.066Z,14.23
2019-05-05T23:56:34.928Z,14.33
2019-05-05T23:59:05.515Z,14.22
